Time;durP1;ratioP1;P1;durP2;ratioP2;P2;SDS_P1;SDS_P2;PMS_P1;PMS_P2;Temp;Humidity;BMP_temperature;BMP_pressure;BME280_temperature;BME280_humidity;BME280_pressure;Samples;Min_cycle;Max_cycle;Signal;HPM_P1;HPM_P2
2023/12/05 00:01:56;;;;;;;9.90;7.10;;;;;;;24.13;24.21;101797.10;103443;1287;61502;-82
2023/12/05 00:04:22;;;;;;;10.90;7.40;;;;;;;24.13;24.24;101794.76;103524;1287;72640;-81
2023/12/05 00:06:48;;;;;;;12.60;7.60;;;;;;;24.13;24.20;101794.74;103563;1292;62379;-82
2023/12/05 00:09:14;;;;;;;8.50;7.10;;;;;;;24.13;24.15;101792.02;103585;1292;61335;-82
2023/12/05 00:11:40;;;;;;;10.80;7.90;;;;;;;24.13;24.15;101789.33;103551;1288;61457;-82
2023/12/05 00:14:06;;;;;;;11.10;8.00;;;;;;;24.13;24.11;101789.89;103555;1287;61383;-82
2023/12/05 00:16:32;;;;;;;12.90;7.70;;;;;;;24.13;24.15;101795.63;103527;1288;61462;-82
2023/12/05 00:18:57;;;;;;;11.10;8.10;;;;;;;24.14;24.14;101793.25;103664;1292;61374;-82
2023/12/05 00:21:24;;;;;;;10.20;7.40;;;;;;;24.14;24.08;101794.86;103323;1294;61293;-82
2023/12/05 00:23:50;;;;;;;9.30;7.60;;;;;;;24.14;24.15;101791.98;103502;1292;61372;-82
2023/12/05 00:26:16;;;;;;;11.70;7.60;;;;;;;24.13;24.10;101797.77;103555;1287;61975;-81
2023/12/05 00:28:41;;;;;;;8.60;7.30;;;;;;;24.14;24.20;101804.77;103613;1288;61392;-82
2023/12/05 00:31:08;;;;;;;10.90;7.70;;;;;;;24.14;24.12;101807.59;103553;1287;61356;-82
2023/12/05 00:33:33;;;;;;;10.70;7.50;;;;;;;24.14;24.13;101802.97;103618;1292;61398;-82
2023/12/05 00:35:59;;;;;;;11.20;7.90;;;;;;;24.14;24.09;101801.52;103480;1288;61945;-82
2023/12/05 00:38:24;;;;;;;11.30;7.60;;;;;;;24.14;24.13;101798.27;103326;1288;72554;-82
2023/12/05 00:40:50;;;;;;;10.10;7.20;;;;;;;24.14;24.06;101791.59;103577;1287;61390;-82
2023/12/05 00:43:15;;;;;;;9.40;7.30;;;;;;;24.14;24.04;101790.14;103574;1288;61362;-82
2023/12/05 00:45:41;;;;;;;10.70;7.60;;;;;;;24.15;24.08;101782.38;103558;1288;61325;-82
2023/12/05 00:48:07;;;;;;;12.00;7.50;;;;;;;24.14;24.08;101778.63;103506;1292;61448;-82
2023/12/05 00:50:32;;;;;;;10.40;7.10;;;;;;;24.15;23.95;101778.80;103552;1292;72431;-81
2023/12/05 00:52:58;;;;;;;11.10;7.60;;;;;;;24.14;24.00;101780.25;103504;1292;62105;-82
2023/12/05 00:55:23;;;;;;;8.70;6.70;;;;;;;24.15;24.06;101780.41;103546;1287;61390;-81
2023/12/05 00:57:49;;;;;;;9.90;7.80;;;;;;;24.15;24.03;101778.39;103532;1288;61393;-81
2023/12/05 01:00:15;;;;;;;11.00;7.40;;;;;;;24.15;23.99;101773.54;103633;1292;61289;-82
2023/12/05 01:02:41;;;;;;;11.30;7.50;;;;;;;24.15;23.97;101770.32;103506;1294;72348;-82
2023/12/05 01:05:10;;;;;;;9.90;6.80;;;;;;;24.15;23.99;101770.30;103548;1289;61851;-82
2023/12/05 01:07:36;;;;;;;8.80;6.90;;;;;;;24.15;24.02;101770.47;103308;1295;61334;-82
2023/12/05 01:10:04;;;;;;;10.40;7.50;;;;;;;24.15;24.03;101763.84;103577;1290;61419;-82
2023/12/05 01:12:29;;;;;;;9.10;6.60;;;;;;;24.16;23.97;101757.13;103604;1288;71745;-83
2023/12/05 01:14:55;;;;;;;11.00;7.10;;;;;;;24.15;23.96;101753.04;103511;1287;61410;-82
2023/12/05 01:17:21;;;;;;;10.30;7.20;;;;;;;24.16;23.95;101751.91;103610;1287;61469;-83
2023/12/05 01:19:46;;;;;;;11.00;7.30;;;;;;;24.16;23.95;101752.08;103285;1289;61329;-83
2023/12/05 01:22:12;;;;;;;10.00;7.20;;;;;;;24.16;24.00;101754.62;103259;1292;61409;-82
2023/12/05 01:24:41;;;;;;;8.90;6.80;;;;;;;24.16;23.98;101753.33;103208;1294;61564;-83
2023/12/05 01:27:07;;;;;;;8.90;6.40;;;;;;;24.17;23.92;101752.39;103230;1294;74458;-83
2023/12/05 01:29:33;;;;;;;8.60;6.70;;;;;;;24.16;23.95;101753.66;103151;1294;61330;-83
2023/12/05 01:31:58;;;;;;;10.40;7.10;;;;;;;24.17;23.98;101752.75;103345;1291;61372;-83
2023/12/05 01:34:24;;;;;;;9.10;6.20;;;;;;;24.17;24.04;101747.35;103286;1291;61416;-83
2023/12/05 01:36:50;;;;;;;9.30;6.60;;;;;;;24.17;23.89;101739.77;103172;1295;61495;-83
2023/12/05 01:39:15;;;;;;;9.10;7.00;;;;;;;24.17;23.98;101736.86;103089;1290;62421;-83
2023/12/05 01:41:41;;;;;;;9.20;6.90;;;;;;;24.18;23.88;101733.98;103262;1293;61516;-83
2023/12/05 01:44:08;;;;;;;9.10;6.70;;;;;;;24.18;23.91;101724.40;103310;1291;61466;-83
2023/12/05 01:46:33;;;;;;;9.30;6.60;;;;;;;24.18;23.92;101718.65;103201;1294;61390;-83
2023/12/05 01:48:59;;;;;;;9.50;6.80;;;;;;;24.18;23.86;101720.83;103225;1294;61846;-83
2023/12/05 01:51:25;;;;;;;8.20;6.20;;;;;;;24.18;23.88;101727.10;103539;1287;61577;-82
2023/12/05 01:53:51;;;;;;;9.00;6.90;;;;;;;24.19;23.89;101727.96;103396;1287;63000;-83
2023/12/05 01:56:16;;;;;;;9.30;6.80;;;;;;;24.18;23.94;101717.38;103587;1292;61475;-83
2023/12/05 01:58:42;;;;;;;9.60;7.00;;;;;;;24.19;23.86;101717.54;103410;1287;74106;-82
2023/12/05 02:01:08;;;;;;;9.60;6.70;;;;;;;24.19;23.89;101707.63;103561;1293;61389;-83
2023/12/05 02:03:34;;;;;;;9.10;6.60;;;;;;;24.19;23.90;101700.22;103536;1290;61497;-83
2023/12/05 02:05:59;;;;;;;8.70;6.50;;;;;;;24.20;23.89;101702.73;103445;1292;61765;-82
2023/12/05 02:08:29;;;;;;;8.80;6.90;;;;;;;24.19;23.92;101699.70;103330;1290;61353;-82
2023/12/05 02:10:54;;;;;;;9.80;7.00;;;;;;;24.19;23.84;101695.22;103619;1289;74382;-82
2023/12/05 02:13:21;;;;;;;10.00;6.80;;;;;;;24.19;23.77;101690.01;103480;1294;61408;-82
2023/12/05 02:15:51;;;;;;;8.60;6.50;;;;;;;24.19;23.87;101684.62;103532;1287;61367;-82
2023/12/05 02:18:20;;;;;;;8.90;6.90;;;;;;;24.19;23.85;101687.81;103488;1292;72498;-82
2023/12/05 02:21:01;;;;;;;8.80;6.30;;;;;;;24.19;23.85;101687.30;103391;1293;74294;-82
2023/12/05 02:24:05;;;;;;;9.70;6.80;;;;;;;24.19;23.86;101685.28;103691;1290;61372;-81
2023/12/05 02:27:17;;;;;;;8.80;6.20;;;;;;;24.19;23.85;101679.22;103100;1297;61469;-82
2023/12/05 02:29:52;;;;;;;8.70;6.00;;;;;;;24.18;23.82;101672.94;102604;1303;71735;-82
2023/12/05 02:32:17;;;;;;;9.10;6.70;;;;;;;24.20;23.86;101666.57;102403;1308;76005;-82
2023/12/05 02:34:44;;;;;;;9.20;6.90;;;;;;;24.20;23.85;101664.56;102428;1303;61587;-82
2023/12/05 02:37:21;;;;;;;9.10;6.90;;;;;;;24.20;23.84;101663.32;102438;1299;61445;-81
2023/12/05 02:40:17;;;;;;;9.90;6.50;;;;;;;24.20;23.78;101655.22;102574;1304;72247;-82
2023/12/05 02:42:45;;;;;;;8.30;6.40;;;;;;;24.20;23.80;101653.77;102601;1299;74514;-82
2023/12/05 02:45:20;;;;;;;9.60;6.70;;;;;;;24.20;23.80;101652.88;102472;1301;61606;-81
2023/12/05 02:47:47;;;;;;;9.90;6.40;;;;;;;24.20;23.74;101653.56;102481;1306;61406;-83
2023/12/05 02:50:13;;;;;;;9.40;7.00;;;;;;;24.21;23.77;101659.48;102584;1300;71351;-82
2023/12/05 02:52:39;;;;;;;9.10;6.70;;;;;;;24.21;23.70;101666.32;102623;1304;61370;-82
2023/12/05 02:55:04;;;;;;;9.10;7.00;;;;;;;24.21;23.77;101666.09;102602;1300;61604;-82
2023/12/05 02:57:30;;;;;;;8.10;6.30;;;;;;;24.22;23.79;101663.36;102427;1300;61562;-83
2023/12/05 02:59:55;;;;;;;8.70;6.40;;;;;;;24.22;23.75;101658.11;102452;1305;61482;-83
2023/12/05 03:02:21;;;;;;;8.90;6.60;;;;;;;24.22;23.78;101655.76;102567;1302;61362;-81
2023/12/05 03:04:47;;;;;;;9.30;7.00;;;;;;;24.23;23.68;101656.82;103385;1293;74457;-81
2023/12/05 03:07:13;;;;;;;9.80;7.00;;;;;;;24.23;23.66;101657.70;103550;1290;61288;-81
2023/12/05 03:09:39;;;;;;;9.80;7.20;;;;;;;24.23;23.69;101654.64;103664;1290;61397;-81
2023/12/05 03:12:05;;;;;;;8.00;6.20;;;;;;;24.23;23.77;101656.95;103252;1290;61350;-82
2023/12/05 03:14:30;;;;;;;9.40;6.90;;;;;;;24.24;23.71;101656.02;103292;1294;61422;-82
2023/12/05 03:16:56;;;;;;;10.70;7.10;;;;;;;24.24;23.77;101651.35;103482;1290;61402;-82
2023/12/05 03:19:22;;;;;;;10.60;7.40;;;;;;;24.24;23.67;101647.16;103591;1289;61393;-82
2023/12/05 03:21:47;;;;;;;10.20;7.60;;;;;;;24.24;23.71;101641.06;103524;1289;61292;-82
2023/12/05 03:24:13;;;;;;;9.50;6.70;;;;;;;24.24;23.72;101634.58;103527;1300;61418;-82
2023/12/05 03:26:38;;;;;;;9.60;6.80;;;;;;;24.25;23.73;101630.42;103488;1293;62320;-82
2023/12/05 03:29:04;;;;;;;9.60;7.20;;;;;;;24.24;23.71;101630.80;103400;1292;61440;-82
2023/12/05 03:31:39;;;;;;;9.80;6.90;;;;;;;24.24;23.74;101628.11;103541;1289;61408;-81
2023/12/05 03:34:04;;;;;;;9.50;6.80;;;;;;;24.25;23.74;101626.45;103574;1288;61896;-82
2023/12/05 03:36:30;;;;;;;9.30;7.00;;;;;;;24.25;23.70;101622.13;103268;1304;61301;-82
2023/12/05 03:38:56;;;;;;;9.40;6.50;;;;;;;24.25;23.75;101612.92;103246;1289;61393;-82
2023/12/05 03:41:22;;;;;;;9.90;6.70;;;;;;;24.26;23.74;101612.89;103503;1292;61374;-82
2023/12/05 03:43:47;;;;;;;10.00;6.80;;;;;;;24.26;23.72;101612.89;103261;1293;61301;-82
2023/12/05 03:46:13;;;;;;;9.70;7.40;;;;;;;24.26;23.74;101606.05;103563;1288;62582;-81
2023/12/05 03:48:39;;;;;;;10.00;6.90;;;;;;;24.26;23.69;101601.20;103510;1288;72391;-82
2023/12/05 03:51:05;;;;;;;10.80;7.20;;;;;;;24.27;23.73;101604.36;103443;1288;61461;-82
2023/12/05 03:53:30;;;;;;;10.50;6.90;;;;;;;24.26;23.70;101598.84;103535;1290;61370;-82
2023/12/05 03:55:56;;;;;;;8.50;6.70;;;;;;;24.27;23.79;101597.33;103503;1292;61879;-82
2023/12/05 03:58:21;;;;;;;10.30;7.20;;;;;;;24.27;23.81;101593.91;103487;1292;61387;-82
2023/12/05 04:00:47;;;;;;;10.50;7.40;;;;;;;24.27;23.76;101595.54;103553;1292;61419;-82
2023/12/05 04:03:13;;;;;;;10.00;7.40;;;;;;;24.28;23.77;101604.29;103485;1292;61488;-82
2023/12/05 04:05:39;;;;;;;10.70;6.70;;;;;;;24.28;23.76;101602.84;103470;1292;61485;-81
2023/12/05 04:08:05;;;;;;;10.00;7.40;;;;;;;24.28;23.79;101599.24;103534;1292;61468;-82
2023/12/05 04:10:30;;;;;;;9.60;7.40;;;;;;;24.29;23.78;101597.23;103494;1292;61498;-82
2023/12/05 04:12:56;;;;;;;10.70;7.00;;;;;;;24.29;23.83;101597.41;103535;1292;61427;-82
2023/12/05 04:15:22;;;;;;;9.50;7.40;;;;;;;24.29;23.79;101593.07;103485;1292;61281;-81
2023/12/05 04:17:47;;;;;;;8.80;7.10;;;;;;;24.29;23.75;101589.08;103585;1291;61495;-82
2023/12/05 04:20:13;;;;;;;9.30;7.30;;;;;;;24.29;23.81;101585.83;103482;1292;61419;-81
2023/12/05 04:22:39;;;;;;;10.50;7.20;;;;;;;24.30;23.89;101582.95;103471;1287;61413;-81
2023/12/05 04:25:05;;;;;;;9.40;7.50;;;;;;;24.31;23.83;101590.62;103284;1294;61399;-81
2023/12/05 04:27:31;;;;;;;9.20;7.20;;;;;;;24.30;23.79;101591.71;103468;1289;61407;-81
2023/12/05 04:29:57;;;;;;;9.20;7.20;;;;;;;24.31;23.88;101594.38;103537;1288;61377;-81
2023/12/05 04:32:23;;;;;;;9.10;6.90;;;;;;;24.31;23.85;101592.92;103455;1292;61720;-81
2023/12/05 04:34:48;;;;;;;10.00;7.20;;;;;;;24.31;23.87;101592.76;103482;1292;61790;-81
2023/12/05 04:37:14;;;;;;;11.10;7.90;;;;;;;24.30;23.76;101589.94;103527;1288;65748;-81
2023/12/05 04:39:40;;;;;;;9.60;7.20;;;;;;;24.30;23.71;101588.66;103502;1292;62438;-81
2023/12/05 04:42:06;;;;;;;7.40;5.70;;;;;;;24.30;23.91;101592.27;103504;1290;61340;-81
2023/12/05 04:44:32;;;;;;;9.30;6.70;;;;;;;24.31;24.17;101589.48;103506;1287;61250;-81
2023/12/05 04:46:57;;;;;;;8.70;6.60;;;;;;;24.33;24.35;101589.16;103484;1301;61335;-81
2023/12/05 04:49:24;;;;;;;8.70;6.40;;;;;;;24.35;24.43;101583.98;103515;1287;63369;-81
2023/12/05 04:51:49;;;;;;;9.90;6.70;;;;;;;24.36;24.47;101575.98;103517;1292;61410;-82
2023/12/05 04:54:15;;;;;;;8.90;6.30;;;;;;;24.38;24.58;101575.86;103557;1289;61386;-82
2023/12/05 04:56:42;;;;;;;11.70;6.90;;;;;;;24.39;24.56;101576.48;103563;1289;61395;-82
2023/12/05 04:59:07;;;;;;;8.80;6.20;;;;;;;24.40;24.64;101572.11;103437;1288;62043;-81
2023/12/05 05:01:33;;;;;;;10.00;6.70;;;;;;;24.40;24.57;101562.04;103516;1289;62305;-82
2023/12/05 05:03:59;;;;;;;8.20;6.50;;;;;;;24.40;24.69;101556.67;103481;1287;61389;-82
2023/12/05 05:06:24;;;;;;;9.40;7.20;;;;;;;24.38;24.63;101545.96;103450;1288;61375;-81
2023/12/05 05:08:50;;;;;;;8.50;6.90;;;;;;;24.36;24.65;101542.16;103268;1288;61426;-82
2023/12/05 05:11:16;;;;;;;9.30;7.10;;;;;;;24.34;24.73;101542.49;103549;1292;61337;-82
2023/12/05 05:13:42;;;;;;;10.60;7.10;;;;;;;24.33;24.54;101549.62;103468;1288;61430;-81
2023/12/05 05:16:09;;;;;;;11.10;7.10;;;;;;;24.30;24.56;101547.48;103286;1291;61859;-81
2023/12/05 05:18:34;;;;;;;10.20;7.30;;;;;;;24.28;24.52;101544.95;103614;1289;61390;-82
2023/12/05 05:21:00;;;;;;;9.90;7.80;;;;;;;24.26;24.49;101547.40;103447;1289;61424;-82
2023/12/05 05:23:26;;;;;;;10.00;7.10;;;;;;;24.23;24.27;101548.83;103751;1287;61419;-83
2023/12/05 05:25:52;;;;;;;10.40;7.10;;;;;;;24.22;24.27;101549.29;103739;1286;61631;-84
2023/12/05 05:28:17;;;;;;;12.00;7.60;;;;;;;24.21;24.13;101550.98;103991;1289;61448;-84
2023/12/05 05:30:43;;;;;;;10.20;7.60;;;;;;;24.19;24.04;101557.46;104242;1292;61342;-82
2023/12/05 05:33:08;;;;;;;9.90;7.30;;;;;;;24.17;23.97;101555.07;103957;1288;61416;-82
2023/12/05 05:35:34;;;;;;;10.90;7.40;;;;;;;24.14;23.87;101551.91;104073;1288;61390;-82
2023/12/05 05:37:59;;;;;;;10.20;7.70;;;;;;;24.10;23.85;101554.33;103741;1293;61444;-82
2023/12/05 05:40:27;;;;;;;10.50;7.40;;;;;;;24.06;23.69;101548.85;103841;1288;61360;-82
2023/12/05 05:42:56;;;;;;;11.70;7.70;;;;;;;24.01;23.67;101546.73;104324;1288;74306;-82
2023/12/05 05:45:22;;;;;;;10.40;7.60;;;;;;;23.96;23.66;101546.52;104601;1288;61323;-82
2023/12/05 05:47:47;;;;;;;10.90;8.00;;;;;;;23.91;23.54;101544.50;104436;1288;61388;-82
2023/12/05 05:50:13;;;;;;;11.50;7.80;;;;;;;23.86;23.35;101537.14;104441;1292;61383;-82
2023/12/05 05:52:40;;;;;;;10.70;7.70;;;;;;;23.81;23.37;101542.33;104564;1291;61458;-82
2023/12/05 05:55:06;;;;;;;10.80;7.80;;;;;;;23.77;23.39;101542.09;104736;1290;59492;-82
2023/12/05 05:57:35;;;;;;;13.70;8.10;;;;;;;23.72;23.48;101540.10;104766;1289;61283;-82
2023/12/05 06:00:03;;;;;;;13.30;8.00;;;;;;;23.66;23.53;101531.35;104704;1293;59482;-83
2023/12/05 06:02:29;;;;;;;13.90;7.90;;;;;;;23.60;23.62;101530.14;104792;1289;74527;-82
2023/12/05 06:04:55;;;;;;;14.80;8.20;;;;;;;23.54;23.76;101533.44;104513;1290;61342;-83
2023/12/05 06:07:22;;;;;;;15.60;8.60;;;;;;;23.48;23.78;101533.19;104646;1290;61283;-83
2023/12/05 06:09:49;;;;;;;18.60;7.90;;;;;;;23.41;23.80;101533.44;104828;1291;73201;-82
2023/12/05 06:12:14;;;;;;;15.00;8.40;;;;;;;23.36;24.10;101530.38;104769;1291;61276;-82
2023/12/05 06:14:40;;;;;;;14.10;8.60;;;;;;;23.32;24.04;101515.60;104882;1289;59397;-82
2023/12/05 06:17:06;;;;;;;14.70;9.30;;;;;;;23.29;23.97;101512.05;104854;1288;61411;-82
2023/12/05 06:19:32;;;;;;;14.20;7.60;;;;;;;23.26;23.89;101521.03;104781;1290;58690;-79
2023/12/05 06:21:58;;;;;;;11.40;8.40;;;;;;;23.26;24.28;101514.92;103911;1293;61278;-79
2023/12/05 06:24:26;;;;;;;12.30;8.20;;;;;;;23.26;24.20;101516.00;104025;1290;61392;-80
2023/12/05 06:26:52;;;;;;;12.30;8.90;;;;;;;23.28;24.01;101514.42;104041;1290;61617;-79
2023/12/05 06:29:18;;;;;;;16.70;8.80;;;;;;;23.32;24.06;101511.50;104089;1289;61710;-79
2023/12/05 06:31:45;;;;;;;12.60;8.30;;;;;;;23.35;23.84;101509.42;103907;1293;61225;-79
2023/12/05 06:34:10;;;;;;;12.30;8.30;;;;;;;23.39;23.71;101508.80;103910;1292;61373;-79
2023/12/05 06:36:36;;;;;;;15.90;8.70;;;;;;;23.43;23.79;101507.13;104173;1293;61260;-79
2023/12/05 06:39:02;;;;;;;13.30;8.20;;;;;;;23.47;23.71;101503.77;104160;1294;61391;-79
2023/12/05 06:41:29;;;;;;;18.80;8.00;;;;;;;23.50;23.76;101496.34;104210;1289;61446;-80
2023/12/05 06:43:54;;;;;;;9.70;7.20;;;;;;;23.55;23.71;101492.80;104019;1296;64067;-80
2023/12/05 06:46:20;;;;;;;12.40;8.00;;;;;;;23.57;23.65;101483.98;104055;1295;60110;-79
2023/12/05 06:48:48;;;;;;;11.60;7.40;;;;;;;23.61;23.64;101464.85;103987;1289;61161;-80
2023/12/05 06:51:19;;;;;;;10.80;7.70;;;;;;;23.64;23.61;101447.96;104203;1289;61445;-82
2023/12/05 06:53:48;;;;;;;11.60;7.30;;;;;;;23.66;23.61;101436.33;104405;1295;72255;-82
2023/12/05 06:56:14;;;;;;;13.90;7.40;;;;;;;23.67;23.52;101434.77;104852;1289;74450;-81
2023/12/05 06:58:40;;;;;;;12.40;7.50;;;;;;;23.68;23.64;101443.55;104962;1295;59792;-80
2023/12/05 07:01:06;;;;;;;16.30;7.70;;;;;;;23.68;23.78;101452.69;104652;1290;61285;-83
2023/12/05 07:03:32;;;;;;;14.40;8.70;;;;;;;23.65;24.00;101454.69;104680;1292;59308;-81
2023/12/05 07:05:58;;;;;;;15.50;8.40;;;;;;;23.61;24.32;101455.91;104504;1290;60171;-81
2023/12/05 07:08:24;;;;;;;15.10;8.50;;;;;;;23.58;24.35;101450.50;103924;1290;61268;-80
2023/12/05 07:10:49;;;;;;;14.90;9.10;;;;;;;23.58;24.36;101456.42;104533;1290;61418;-81
2023/12/05 07:13:15;;;;;;;12.80;8.40;;;;;;;23.56;24.26;101461.61;104640;1290;61405;-81
2023/12/05 07:15:42;;;;;;;14.00;8.70;;;;;;;23.52;24.31;101454.14;103866;1289;72596;-80
2023/12/05 07:18:08;;;;;;;11.30;8.20;;;;;;;23.48;24.23;101449.81;104033;1291;74328;-81
2023/12/05 07:20:34;;;;;;;13.50;8.60;;;;;;;23.47;24.12;101454.55;103873;1289;61339;-81
2023/12/05 07:23:00;;;;;;;13.40;8.50;;;;;;;23.48;24.03;101468.66;104076;1290;61493;-80
2023/12/05 07:25:29;;;;;;;11.40;8.00;;;;;;;23.50;24.01;101468.90;103628;1290;61192;-81
2023/12/05 07:27:55;;;;;;;;;;;;;;;23.53;24.03;101469.34;103631;1290;73255;-80
2023/12/05 07:30:22;;;;;;;13.90;7.90;;;;;;;23.53;24.13;101461.82;103675;1291;61403;-81
2023/12/05 07:32:47;;;;;;;13.70;7.80;;;;;;;23.58;24.12;101455.74;103728;1288;61388;-81
2023/12/05 07:35:13;;;;;;;11.40;7.50;;;;;;;23.62;24.14;101454.20;104415;1290;61335;-82
2023/12/05 07:37:39;;;;;;;12.50;7.30;;;;;;;23.66;24.19;101453.77;104456;1290;61381;-82
2023/12/05 07:40:06;;;;;;;15.80;7.70;;;;;;;23.69;24.28;101447.36;104149;1290;61285;-81
2023/12/05 07:42:32;;;;;;;13.10;7.20;;;;;;;23.72;24.34;101444.13;104231;1290;61608;-81
2023/12/05 07:44:57;;;;;;;13.80;7.30;;;;;;;23.75;24.39;101443.89;104362;1289;61397;-81
2023/12/05 07:47:26;;;;;;;25.90;7.90;;;;;;;23.78;24.47;101428.05;104504;1295;59438;-82
2023/12/05 07:49:51;;;;;;;21.10;7.30;;;;;;;23.81;24.51;101435.75;104594;1289;74104;-82
2023/12/05 07:52:18;;;;;;;17.70;7.70;;;;;;;23.83;24.57;101434.17;104906;1288;59693;-82
2023/12/05 07:54:44;;;;;;;19.10;8.10;;;;;;;23.81;24.51;101433.98;104897;1287;61226;-82
2023/12/05 07:57:10;;;;;;;25.70;8.70;;;;;;;23.71;24.60;101433.56;104964;1286;59153;-82
2023/12/05 07:59:36;;;;;;;23.40;9.20;;;;;;;23.63;24.71;101430.22;105297;1289;61297;-82
2023/12/05 08:02:01;;;;;;;14.80;8.60;;;;;;;23.54;24.87;101429.27;105092;1290;60438;-79
2023/12/05 08:04:28;;;;;;;16.20;9.00;;;;;;;23.44;25.06;101428.16;104233;1291;61536;-79
2023/12/05 08:06:54;;;;;;;14.80;9.30;;;;;;;23.40;25.25;101432.05;103968;1289;61353;-82
2023/12/05 08:09:20;;;;;;;20.70;8.80;;;;;;;23.39;25.27;101434.10;104835;1287;61263;-80
2023/12/05 08:11:45;;;;;;;21.70;8.70;;;;;;;23.39;25.12;101426.55;104006;1288;74351;-81
2023/12/05 08:14:11;;;;;;;16.60;8.70;;;;;;;23.40;25.02;101422.30;103938;1287;61395;-81
2023/12/05 08:16:39;;;;;;;17.20;9.00;;;;;;;23.43;24.90;101417.61;103910;1287;61210;-81
2023/12/05 08:19:06;;;;;;;14.30;8.50;;;;;;;23.47;24.70;101419.02;103969;1290;72419;-81
2023/12/05 08:21:32;;;;;;;12.90;8.40;;;;;;;23.50;24.70;101417.30;104044;1289;61293;-81
2023/12/05 08:23:57;;;;;;;23.60;8.10;;;;;;;23.54;24.63;101417.37;103785;1287;61392;-81
2023/12/05 08:26:23;;;;;;;15.00;7.80;;;;;;;23.59;24.68;101424.24;103917;1288;61317;-81
2023/12/05 08:28:49;;;;;;;15.20;7.20;;;;;;;23.63;24.62;101421.98;103954;1289;61332;-81
2023/12/05 08:31:14;;;;;;;12.80;7.30;;;;;;;23.66;24.65;101415.66;104152;1288;73024;-81
2023/12/05 08:33:40;;;;;;;11.90;7.40;;;;;;;23.69;24.77;101413.42;103927;1288;61193;-81
2023/12/05 08:36:06;;;;;;;14.30;7.10;;;;;;;23.72;24.89;101409.64;104179;1290;61387;-81
2023/12/05 08:38:31;;;;;;;13.90;7.50;;;;;;;23.74;24.95;101405.91;105373;1288;61132;-83
2023/12/05 08:40:57;;;;;;;16.40;8.00;;;;;;;23.73;25.11;101404.55;104780;1290;59422;-83
2023/12/05 08:43:23;;;;;;;15.40;7.80;;;;;;;23.69;25.14;101398.67;105019;1288;60493;-83
2023/12/05 08:45:48;;;;;;;11.90;8.20;;;;;;;23.67;25.18;101393.44;105022;1290;74509;-83
2023/12/05 08:48:14;;;;;;;13.60;7.90;;;;;;;23.68;25.03;101389.27;105191;1289;61518;-82
2023/12/05 08:50:41;;;;;;;14.80;8.10;;;;;;;23.68;25.10;101383.49;105184;1289;59782;-83
2023/12/05 08:53:07;;;;;;;19.70;8.20;;;;;;;23.70;25.19;101381.74;105308;1287;61198;-80
2023/12/05 08:55:32;;;;;;;20.10;8.50;;;;;;;23.71;25.29;101392.95;104902;1292;61252;-81
2023/12/05 08:57:58;;;;;;;53.60;9.70;;;;;;;23.72;25.55;101395.27;105296;1290;59325;-82
2023/12/05 09:00:25;;;;;;;139.80;12.50;;;;;;;23.74;25.97;101391.52;105462;1288;59641;-81
2023/12/05 09:02:53;;;;;;;18.00;8.20;;;;;;;23.86;26.00;101387.73;105461;1290;59954;-88
2023/12/05 09:08:22;;;;;;;24.10;8.00;;;;;;;24.20;26.68;101373.44;105013;1295;60237;-78
2023/12/05 09:10:53;;;;;;;36.80;8.30;;;;;;;24.32;27.50;101358.79;104857;1298;61365;-86
2023/12/05 09:13:18;;;;;;;18.50;7.60;;;;;;;24.42;27.73;101349.74;104409;1295;72481;-81
2023/12/05 09:15:44;;;;;;;17.20;8.00;;;;;;;24.38;27.75;101352.23;103704;1292;61411;-80
2023/12/05 09:18:12;;;;;;;17.50;7.60;;;;;;;24.28;27.53;101360.55;103438;1294;61278;-83
2023/12/05 09:20:38;;;;;;;19.60;7.90;;;;;;;24.18;27.39;101368.20;103323;1296;60849;-82
2023/12/05 09:23:03;;;;;;;14.00;7.80;;;;;;;24.08;27.25;101368.67;103273;1295;61478;-80
2023/12/05 09:25:29;;;;;;;21.30;8.30;;;;;;;24.00;27.06;101366.60;103653;1292;61368;-79
2023/12/05 09:27:55;;;;;;;16.70;8.50;;;;;;;23.93;26.93;101356.55;103099;1299;61282;-81
2023/12/05 09:30:20;;;;;;;17.30;7.80;;;;;;;23.86;27.00;101344.46;103150;1294;61368;-80
2023/12/05 09:32:46;;;;;;;12.20;7.20;;;;;;;23.80;26.94;101347.60;103313;1296;61858;-81
2023/12/05 09:35:12;;;;;;;15.50;7.50;;;;;;;23.74;27.10;101352.86;103337;1295;72163;-81
2023/12/05 09:37:37;;;;;;;11.30;7.20;;;;;;;23.69;26.96;101356.61;103369;1296;61320;-81
2023/12/05 09:40:04;;;;;;;16.20;7.60;;;;;;;23.65;27.05;101362.48;103172;1293;61328;-82
2023/12/05 09:42:30;;;;;;;18.50;7.70;;;;;;;23.62;27.07;101360.43;103618;1292;61592;-81
2023/12/05 09:44:55;;;;;;;17.10;8.10;;;;;;;23.58;27.13;101352.95;104464;1293;60834;-84
2023/12/05 09:47:21;;;;;;;16.90;9.60;;;;;;;23.51;27.21;101340.71;104390;1297;61369;-80
2023/12/05 09:49:48;;;;;;;18.10;9.50;;;;;;;23.43;27.41;101336.45;104533;1292;61228;-81
2023/12/05 09:52:14;;;;;;;18.00;9.30;;;;;;;23.33;27.26;101329.84;104619;1293;61220;-81
2023/12/05 09:54:43;;;;;;;30.00;9.90;;;;;;;23.24;27.57;101323.30;104499;1294;59518;-81
2023/12/05 09:57:12;;;;;;;24.80;11.00;;;;;;;23.16;28.06;101315.42;103970;1293;73557;-80
2023/12/05 09:59:38;;;;;;;23.20;12.30;;;;;;;23.06;28.13;101311.78;103923;1298;74682;-83
2023/12/05 10:02:04;;;;;;;23.80;11.10;;;;;;;22.93;28.28;101307.00;104040;1294;61337;-80
2023/12/05 10:04:30;;;;;;;22.70;11.40;;;;;;;22.85;28.42;101301.82;103941;1293;60023;-81
2023/12/05 10:06:59;;;;;;;20.50;11.60;;;;;;;22.79;28.37;101300.95;104009;1299;61511;-80
2023/12/05 10:09:27;;;;;;;21.10;12.10;;;;;;;22.74;28.35;101298.84;103586;1294;75510;-81
2023/12/05 10:11:52;;;;;;;22.60;10.50;;;;;;;22.55;28.01;101297.23;103833;1293;60818;-82
2023/12/05 10:14:18;;;;;;;18.90;10.60;;;;;;;22.25;27.81;101293.02;103550;1293;61390;-81
2023/12/05 10:16:44;;;;;;;17.30;10.60;;;;;;;22.01;27.73;101287.11;103772;1299;60367;-79
2023/12/05 10:19:10;;;;;;;20.90;10.80;;;;;;;21.91;27.86;101283.33;103956;1292;59695;-80
2023/12/05 10:21:36;;;;;;;20.90;10.80;;;;;;;21.91;28.04;101283.99;103747;1292;61320;-80
2023/12/05 10:24:02;;;;;;;25.20;10.80;;;;;;;21.95;28.39;101278.02;103610;1292;61309;-80
2023/12/05 10:26:28;;;;;;;16.00;11.30;;;;;;;21.92;28.16;101276.45;103536;1293;61420;-80
2023/12/05 10:28:56;;;;;;;18.60;10.10;;;;;;;21.40;27.71;101275.11;103815;1298;74465;-80
2023/12/05 10:31:22;;;;;;;20.90;9.10;;;;;;;21.20;28.16;101275.88;103631;1294;74676;-80
2023/12/05 10:33:49;;;;;;;14.20;9.60;;;;;;;21.21;28.09;101270.63;103764;1294;61307;-80
2023/12/05 10:36:15;;;;;;;18.90;10.50;;;;;;;20.86;28.07;101265.02;103921;1293;61418;-81
2023/12/05 10:38:43;;;;;;;17.10;9.20;;;;;;;20.77;28.23;101254.48;103952;1296;60320;-79
2023/12/05 10:41:09;;;;;;;19.00;8.70;;;;;;;20.88;28.33;101253.23;103507;1299;74628;-80
2023/12/05 10:43:35;;;;;;;12.80;8.60;;;;;;;21.05;28.22;101239.27;103897;1293;61261;-79
2023/12/05 10:46:05;;;;;;;20.20;9.00;;;;;;;21.21;28.27;101236.30;103878;1298;61176;-80
2023/12/05 10:48:31;;;;;;;18.30;8.80;;;;;;;21.35;28.26;101233.43;103704;1292;72435;-80
2023/12/05 10:50:57;;;;;;;23.90;10.20;;;;;;;21.45;28.28;101234.54;103789;1292;61300;-80
2023/12/05 10:53:25;;;;;;;17.60;9.70;;;;;;;21.51;28.34;101231.83;103593;1299;60905;-80
2023/12/05 10:55:50;;;;;;;17.20;8.70;;;;;;;21.58;28.28;101233.35;103636;1293;60267;-80
2023/12/05 10:58:16;;;;;;;16.30;8.40;;;;;;;21.66;28.28;101235.52;103962;1293;60749;-79
2023/12/05 11:00:43;;;;;;;19.90;8.40;;;;;;;21.73;28.19;101228.27;103628;1296;61473;-79
2023/12/05 11:03:08;;;;;;;20.00;13.30;;;;;;;21.78;28.22;101223.97;103850;1293;61459;-83
2023/12/05 11:05:34;;;;;;;23.10;8.20;;;;;;;21.73;28.04;101222.70;103432;1294;61277;-80
2023/12/05 11:08:00;;;;;;;21.00;8.50;;;;;;;21.66;28.05;101225.34;103523;1298;61431;-81
2023/12/05 11:10:27;;;;;;;20.30;9.10;;;;;;;21.66;28.20;101226.95;103800;1296;61398;-80
2023/12/05 11:12:53;;;;;;;17.80;8.70;;;;;;;21.66;27.88;101224.09;103696;1293;62662;-80